Terminal Aerodrome Forecast
Issued by NWS

Home | Current Version | Previous Version | Text Only | Print | Product List | Glossary On
Versions: 1 2 3 4 5 6 7 8 9 10 11 12 13
000
FTUS46 KHNX 031143
TAFFAT
TAF
KFAT 031143Z 0312/0412 30008KT P6SM SCT150 OVC200
     FM032300 31012KT P6SM BKN200
     FM040900 30006KT P6SM BKN200=

USA.gov is the U.S. government's official web portal to all federal, state and local government web resources and services.